Time;durP1;ratioP1;P1;durP2;ratioP2;P2;SDS_P1;SDS_P2;PMS_P1;PMS_P2;Temp;Humidity;BMP_temperature;BMP_pressure;BME280_temperature;BME280_humidity;BME280_pressure;Samples;Min_cycle;Max_cycle;Signal;HPM_P1;HPM_P2
2021/12/06 00:01:11;;;;;;;11.00;9.90;;;5.40;99.90;;;;;;5083734;28;20207;-78
2021/12/06 00:03:42;;;;;;;11.97;10.20;;;5.40;99.90;;;;;;5090740;28;20676;-78
2021/12/06 00:06:10;;;;;;;11.40;10.20;;;5.40;99.90;;;;;;5070126;28;20200;-77
2021/12/06 00:08:38;;;;;;;14.43;10.23;;;5.40;99.90;;;;;;5061763;28;20233;-77
2021/12/06 00:11:07;;;;;;;13.53;10.77;;;5.30;99.90;;;;;;5071207;28;20671;-78
2021/12/06 00:13:43;;;;;;;10.90;9.70;;;5.30;99.90;;;;;;5071248;28;20203;-78
2021/12/06 00:16:17;;;;;;;12.27;9.97;;;5.30;99.90;;;;;;5062976;28;20279;-78
2021/12/06 00:18:45;;;;;;;10.70;9.60;;;5.40;99.90;;;;;;5056717;28;20714;-78
2021/12/06 00:21:13;;;;;;;12.10;10.17;;;5.40;99.90;;;;;;5078975;22;20231;-77
2021/12/06 00:23:41;;;;;;;13.70;9.70;;;5.30;99.90;;;;;;5004142;28;20238;-77
2021/12/06 00:26:10;;;;;;;11.33;8.70;;;5.20;99.90;;;;;;5025798;28;20226;-77
2021/12/06 00:28:41;;;;;;;9.83;7.87;;;5.20;99.90;;;;;;5025302;28;20571;-77
2021/12/06 00:31:09;;;;;;;9.20;7.90;;;5.10;99.90;;;;;;5018130;28;20221;-77
2021/12/06 00:33:37;;;;;;;7.83;7.07;;;5.10;99.90;;;;;;5025528;28;20205;-77
2021/12/06 00:36:07;;;;;;;7.87;7.07;;;5.10;99.90;;;;;;5012223;28;20198;-77
2021/12/06 00:38:37;;;;;;;7.63;6.83;;;5.10;99.90;;;;;;5032282;28;20572;-77
2021/12/06 00:41:05;;;;;;;8.77;7.17;;;5.00;99.90;;;;;;5029993;28;20205;-77
2021/12/06 00:43:32;;;;;;;8.10;7.30;;;4.90;99.90;;;;;;5030480;28;20205;-76
2021/12/06 00:46:01;;;;;;;8.40;7.50;;;4.90;99.90;;;;;;5008799;28;20220;-77
2021/12/06 00:48:28;;;;;;;8.30;7.60;;;4.90;99.90;;;;;;5029118;28;20204;-77
2021/12/06 00:50:56;;;;;;;9.57;7.90;;;4.90;99.90;;;;;;5026829;28;20192;-77
2021/12/06 00:53:23;;;;;;;8.50;7.77;;;5.00;99.90;;;;;;5014002;28;20201;-77
2021/12/06 00:55:51;;;;;;;9.53;8.37;;;5.00;99.90;;;;;;5029933;28;20288;-77
2021/12/06 00:58:19;;;;;;;8.10;7.30;;;5.00;99.90;;;;;;5005992;28;20208;-77
2021/12/06 01:00:52;;;;;;;8.33;7.43;;;4.80;99.90;;;;;;5006204;28;20670;-77
2021/12/06 01:03:23;;;;;;;8.10;7.20;;;4.80;99.90;;;;;;5005670;28;20197;-76
2021/12/06 01:05:51;;;;;;;8.00;7.20;;;4.70;99.90;;;;;;5010927;28;20210;-77
2021/12/06 01:08:19;;;;;;;7.77;7.07;;;4.70;99.90;;;;;;5005339;28;20192;-77
2021/12/06 01:10:49;;;;;;;7.50;6.80;;;4.60;99.90;;;;;;5010510;28;20217;-77
2021/12/06 01:13:17;;;;;;;8.07;6.90;;;4.60;99.90;;;;;;5007514;28;20607;-77
2021/12/06 01:15:45;;;;;;;7.50;6.80;;;4.40;99.90;;;;;;5012435;28;20562;-77
2021/12/06 01:18:16;;;;;;;7.60;6.73;;;4.30;99.90;;;;;;5016698;28;20213;-77
2021/12/06 01:20:52;;;;;;;7.33;6.63;;;4.30;99.90;;;;;;5015309;28;20207;-77
2021/12/06 01:23:25;;;;;;;6.80;6.00;;;4.30;99.90;;;;;;5022278;28;20204;-77
2021/12/06 01:26:09;;;;;;;9.13;8.23;;;4.40;99.90;;;;;;5011984;28;20201;-77
2021/12/06 01:31:36;;;;;;;9.53;8.60;;;4.50;99.90;;;;;;5011280;28;20224;-77
2021/12/06 01:39:06;;;;;;;8.00;7.17;;;4.50;99.90;;;;;;5016889;28;20201;-77
2021/12/06 01:39:44;;;;;;;8.67;7.80;;;4.20;99.90;;;;;;5015376;28;20213;-77
2021/12/06 01:42:12;;;;;;;8.53;7.83;;;4.20;99.90;;;;;;5009797;28;20222;-77
2021/12/06 01:44:41;;;;;;;8.13;7.43;;;4.20;99.90;;;;;;5010429;28;20198;-77
2021/12/06 01:47:15;;;;;;;7.77;6.97;;;4.20;99.90;;;;;;5012583;28;20206;-77
2021/12/06 01:49:47;;;;;;;7.57;6.67;;;3.90;99.90;;;;;;5030793;28;20197;-77
2021/12/06 01:52:20;;;;;;;8.53;7.73;;;3.90;99.90;;;;;;5026327;28;20215;-77
2021/12/06 01:54:49;;;;;;;8.70;7.80;;;3.90;99.90;;;;;;5024051;28;20205;-77
2021/12/06 01:57:17;;;;;;;11.37;8.27;;;3.80;99.90;;;;;;5017460;28;20193;-77
2021/12/06 01:59:45;;;;;;;13.37;9.40;;;3.90;99.90;;;;;;5018015;28;20211;-77
2021/12/06 02:02:13;;;;;;;9.80;8.80;;;3.90;99.90;;;;;;5018931;28;20674;-77
2021/12/06 02:04:42;;;;;;;9.07;8.17;;;3.90;99.90;;;;;;5020068;28;20209;-77
2021/12/06 02:07:16;;;;;;;9.10;8.23;;;3.80;99.90;;;;;;5013933;28;20218;-77
2021/12/06 02:09:48;;;;;;;9.73;8.80;;;3.70;99.90;;;;;;5016799;28;20197;-77
2021/12/06 02:12:16;;;;;;;9.30;8.40;;;3.60;99.90;;;;;;5033746;28;20230;-77
2021/12/06 02:14:53;;;;;;;9.00;8.17;;;3.60;99.90;;;;;;5017194;28;20222;-77
2021/12/06 02:17:25;;;;;;;10.33;9.27;;;3.60;99.90;;;;;;5016289;28;20198;-77
2021/12/06 02:19:58;;;;;;;9.47;8.57;;;3.50;99.90;;;;;;5033746;28;20644;-77
2021/12/06 02:22:30;;;;;;;9.47;8.63;;;3.40;99.90;;;;;;5015031;28;20731;-77
2021/12/06 02:24:58;;;;;;;12.13;10.37;;;3.60;99.90;;;;;;5014841;28;20199;-77
2021/12/06 02:27:28;;;;;;;11.80;10.63;;;3.40;99.90;;;;;;5032581;28;20199;-77
2021/12/06 02:29:58;;;;;;;13.73;11.80;;;3.40;99.90;;;;;;5012385;28;20214;-77
2021/12/06 02:32:27;;;;;;;11.70;10.50;;;3.50;99.90;;;;;;5020620;28;20232;-77
2021/12/06 02:34:56;;;;;;;12.70;10.67;;;3.50;99.90;;;;;;5030097;28;20211;-77
2021/12/06 02:37:29;;;;;;;12.33;10.97;;;3.40;99.90;;;;;;5021900;28;20201;-77
2021/12/06 02:40:03;;;;;;;11.60;10.30;;;3.20;99.90;;;;;;5024066;28;20225;-77
2021/12/06 02:42:32;;;;;;;10.87;9.70;;;3.20;99.90;;;;;;5014503;28;20230;-77
2021/12/06 02:45:00;;;;;;;12.17;10.10;;;3.10;99.90;;;;;;5023102;28;20199;-77
2021/12/06 02:47:27;;;;;;;11.20;10.20;;;3.00;99.90;;;;;;5011374;28;20226;-77
2021/12/06 02:49:54;;;;;;;12.77;11.47;;;3.00;99.90;;;;;;5013185;28;20203;-77
2021/12/06 02:53:14;;;;;;;11.33;10.13;;;3.20;99.90;;;;;;5021765;28;20223;-77
2021/12/06 02:55:44;;;;;;;10.40;9.33;;;3.20;99.90;;;;;;5027433;28;20558;-77
2021/12/06 02:58:22;;;;;;;11.63;10.53;;;3.30;99.90;;;;;;5009820;28;20770;-77
2021/12/06 03:00:53;;;;;;;10.70;9.20;;;3.20;99.90;;;;;;5011610;28;20199;-77
2021/12/06 03:03:22;;;;;;;12.20;11.00;;;3.30;99.90;;;;;;5016199;28;20195;-77
2021/12/06 03:05:52;;;;;;;13.40;12.10;;;3.30;99.90;;;;;;5019775;28;20316;-77
2021/12/06 03:08:35;;;;;;;11.70;9.77;;;3.30;99.90;;;;;;5013361;28;20206;-77
2021/12/06 03:11:05;;;;;;;12.37;11.17;;;3.30;99.90;;;;;;5025370;28;20215;-77
2021/12/06 03:13:33;;;;;;;14.87;13.37;;;3.20;99.90;;;;;;5016750;28;20199;-77
2021/12/06 03:16:00;;;;;;;14.03;12.63;;;3.30;99.90;;;;;;5017857;28;20198;-77
2021/12/06 03:18:28;;;;;;;14.73;11.93;;;3.30;99.90;;;;;;5012178;28;20684;-77
2021/12/06 03:20:55;;;;;;;11.20;10.20;;;3.40;99.90;;;;;;5004390;28;20206;-77
2021/12/06 03:23:22;;;;;;;13.03;11.70;;;3.30;99.90;;;;;;5016123;28;20206;-77
2021/12/06 03:25:50;;;;;;;11.73;10.63;;;3.30;99.90;;;;;;5012652;28;20558;-77
2021/12/06 03:28:19;;;;;;;12.47;11.17;;;3.20;99.90;;;;;;5008652;28;20684;-77
2021/12/06 03:30:47;;;;;;;12.23;11.00;;;3.10;99.90;;;;;;5002239;28;20198;-77
2021/12/06 03:33:15;;;;;;;12.43;11.27;;;3.00;99.90;;;;;;5016234;28;20207;-77
2021/12/06 03:35:42;;;;;;;11.77;10.77;;;3.10;99.90;;;;;;5010271;28;20209;-77
2021/12/06 03:38:10;;;;;;;12.63;11.33;;;3.10;99.90;;;;;;5006693;28;20202;-77
2021/12/06 03:40:38;;;;;;;14.53;12.33;;;3.10;99.90;;;;;;5012173;28;20974;-77
2021/12/06 03:43:06;;;;;;;13.70;12.27;;;3.10;99.90;;;;;;5002067;28;20203;-77
2021/12/06 03:45:37;;;;;;;13.93;12.53;;;3.10;99.90;;;;;;5011917;28;20687;-77
2021/12/06 03:48:05;;;;;;;13.33;12.00;;;2.90;99.90;;;;;;5012862;28;20197;-77
2021/12/06 03:50:33;;;;;;;14.27;12.87;;;3.00;99.90;;;;;;5011795;28;20187;-77
2021/12/06 03:53:01;;;;;;;12.93;11.63;;;3.00;99.90;;;;;;5028925;28;20222;-77
2021/12/06 03:55:28;;;;;;;13.70;12.07;;;2.90;99.90;;;;;;5014635;28;20213;-77
2021/12/06 03:57:56;;;;;;;13.87;12.47;;;2.80;99.90;;;;;;5016149;28;20206;-77
2021/12/06 04:00:39;;;;;;;12.80;11.50;;;2.60;99.90;;;;;;5029537;28;20209;-77
2021/12/06 04:03:08;;;;;;;14.53;12.30;;;2.70;99.90;;;;;;5007369;28;20197;-77
2021/12/06 04:05:35;;;;;;;14.07;12.67;;;2.70;99.90;;;;;;5015650;28;20210;-77
2021/12/06 04:08:03;;;;;;;12.67;11.37;;;2.70;99.90;;;;;;5014886;28;20199;-77
2021/12/06 04:10:30;;;;;;;13.07;11.77;;;2.70;99.90;;;;;;5031064;28;20202;-77
2021/12/06 04:12:59;;;;;;;12.37;11.17;;;2.70;99.90;;;;;;5014734;28;20225;-77
2021/12/06 04:15:29;;;;;;;11.63;10.53;;;2.70;99.90;;;;;;5010214;28;20564;-77
2021/12/06 04:18:00;;;;;;;11.70;10.47;;;2.70;99.90;;;;;;5013377;28;20195;-77
2021/12/06 04:20:28;;;;;;;12.17;10.97;;;2.80;99.90;;;;;;5007464;28;20217;-77
2021/12/06 04:22:57;;;;;;;14.60;13.20;;;2.70;99.90;;;;;;5014285;28;20221;-77
2021/12/06 04:25:26;;;;;;;16.13;14.47;;;2.70;99.90;;;;;;5017043;28;20189;-77
2021/12/06 04:27:56;;;;;;;16.40;13.93;;;2.70;99.90;;;;;;5016325;28;20196;-77
2021/12/06 04:30:31;;;;;;;17.47;15.03;;;2.60;99.90;;;;;;5023832;28;20676;-77
2021/12/06 04:33:01;;;;;;;16.93;14.40;;;2.40;99.90;;;;;;5008080;28;20212;-77
2021/12/06 04:35:30;;;;;;;16.03;14.37;;;2.50;99.90;;;;;;5014398;28;20542;-77
2021/12/06 04:37:58;;;;;;;15.93;14.43;;;2.50;99.90;;;;;;5011458;28;20206;-77
2021/12/06 04:40:27;;;;;;;15.87;14.23;;;2.60;99.90;;;;;;5011839;28;20217;-77
2021/12/06 04:42:54;;;;;;;15.00;13.50;;;2.60;99.90;;;;;;5013550;28;20226;-77
2021/12/06 04:45:22;;;;;;;14.27;12.80;;;2.60;99.90;;;;;;5014046;28;20652;-77
2021/12/06 04:48:20;;;;;;;15.37;13.87;;;2.60;99.90;;;;;;5010669;28;20204;-77
2021/12/06 04:50:48;;;;;;;14.90;13.40;;;2.50;99.90;;;;;;5026429;28;20187;-77
2021/12/06 04:53:22;;;;;;;14.37;12.87;;;2.50;99.90;;;;;;5014098;28;20216;-77
2021/12/06 04:55:54;;;;;;;15.13;12.47;;;2.50;99.90;;;;;;5020867;28;20209;-77
2021/12/06 04:58:25;;;;;;;15.70;14.10;;;2.50;99.90;;;;;;5019063;28;20198;-77
2021/12/06 05:00:58;;;;;;;14.73;13.20;;;2.40;99.90;;;;;;5006459;28;20209;-77
2021/12/06 05:03:28;;;;;;;16.63;14.87;;;2.30;99.90;;;;;;5020679;28;20202;-77
2021/12/06 05:05:59;;;;;;;15.27;13.40;;;2.30;99.90;;;;;;5012114;28;20220;-77
2021/12/06 05:08:29;;;;;;;14.80;13.27;;;2.40;99.90;;;;;;5012331;28;20556;-77
2021/12/06 05:10:59;;;;;;;16.63;14.10;;;2.50;99.90;;;;;;5014200;28;20189;-77
2021/12/06 05:13:28;;;;;;;16.10;14.27;;;2.50;99.90;;;;;;5029453;28;20218;-77
2021/12/06 05:15:56;;;;;;;15.30;13.83;;;2.50;99.90;;;;;;5023003;28;20211;-77
2021/12/06 05:18:24;;;;;;;15.47;13.87;;;2.20;99.90;;;;;;5013883;28;20209;-77
2021/12/06 05:20:53;;;;;;;15.57;13.97;;;2.10;99.90;;;;;;5006823;28;20218;-77
2021/12/06 05:23:21;;;;;;;16.03;14.37;;;2.30;99.90;;;;;;5003907;28;20208;-77
2021/12/06 05:25:49;;;;;;;15.40;13.57;;;2.40;99.90;;;;;;5014721;28;20195;-77
2021/12/06 05:28:17;;;;;;;15.17;13.47;;;2.30;99.90;;;;;;5017487;28;20203;-77
2021/12/06 05:30:45;;;;;;;14.37;12.87;;;2.50;99.90;;;;;;5014423;28;20199;-77
2021/12/06 05:33:20;;;;;;;13.30;11.93;;;2.50;99.90;;;;;;5007794;28;20210;-77
2021/12/06 05:35:47;;;;;;;12.93;11.63;;;2.50;99.90;;;;;;5013058;28;20201;-77
2021/12/06 05:38:16;;;;;;;16.77;12.23;;;2.40;99.90;;;;;;5005164;28;20211;-77
2021/12/06 05:40:45;;;;;;;15.80;13.47;;;2.20;99.90;;;;;;5003696;28;20212;-77
2021/12/06 05:43:13;;;;;;;19.73;13.70;;;2.00;99.90;;;;;;5021868;28;20200;-77
2021/12/06 05:45:40;;;;;;;17.07;13.93;;;1.70;99.90;;;;;;5025260;28;20206;-77
2021/12/06 05:48:08;;;;;;;14.87;13.07;;;1.70;99.90;;;;;;5010800;28;20203;-77
2021/12/06 05:50:42;;;;;;;16.37;14.07;;;1.80;99.90;;;;;;5022925;28;20199;-77
2021/12/06 05:53:10;;;;;;;15.03;13.30;;;1.80;99.90;;;;;;5003776;28;20199;-77
2021/12/06 05:55:38;;;;;;;16.17;13.70;;;1.90;99.90;;;;;;5027092;28;20203;-77
2021/12/06 05:58:08;;;;;;;15.73;13.80;;;2.20;99.90;;;;;;5012242;28;20198;-77
2021/12/06 06:00:36;;;;;;;14.93;13.13;;;2.30;99.90;;;;;;5024324;28;20218;-77
2021/12/06 06:03:05;;;;;;;16.67;13.93;;;1.90;99.90;;;;;;5023787;28;20229;-77
2021/12/06 06:05:33;;;;;;;17.70;14.10;;;1.80;99.90;;;;;;5016243;28;20715;-77
2021/12/06 06:08:10;;;;;;;16.20;14.50;;;1.80;99.90;;;;;;5007041;28;20206;-77
2021/12/06 06:10:39;;;;;;;16.20;14.53;;;1.70;99.90;;;;;;5016929;28;20198;-77
2021/12/06 06:13:08;;;;;;;17.00;13.93;;;1.70;99.90;;;;;;5024965;28;20219;-77
2021/12/06 06:15:36;;;;;;;16.50;14.30;;;1.90;99.90;;;;;;5017410;28;20194;-77
2021/12/06 06:18:05;;;;;;;15.97;13.93;;;2.10;99.90;;;;;;5016795;28;20199;-77
2021/12/06 06:20:36;;;;;;;17.20;14.60;;;2.00;99.90;;;;;;5012937;28;20215;-78
2021/12/06 06:23:04;;;;;;;15.80;13.93;;;2.00;99.90;;;;;;5026075;28;20226;-77
2021/12/06 06:25:32;;;;;;;18.43;13.33;;;2.10;99.90;;;;;;5031663;28;20803;-75
2021/12/06 06:28:02;;;;;;;17.93;13.77;;;2.30;99.90;;;;;;5014309;28;20202;-75
2021/12/06 06:30:29;;;;;;;16.07;14.37;;;2.00;99.90;;;;;;5029713;28;20207;-77
2021/12/06 06:32:57;;;;;;;16.77;12.93;;;2.80;99.90;;;;;;5020654;28;20217;-77
2021/12/06 06:35:26;;;;;;;14.53;12.53;;;2.50;99.90;;;;;;5026072;28;20199;-77
2021/12/06 06:37:54;;;;;;;14.50;12.70;;;2.50;99.90;;;;;;5009380;28;20658;-77
2021/12/06 06:40:21;;;;;;;13.33;12.10;;;2.50;99.90;;;;;;5028751;28;20220;-77
2021/12/06 06:42:49;;;;;;;14.43;12.83;;;2.50;99.90;;;;;;5014304;28;20225;-77
2021/12/06 06:45:20;;;;;;;15.70;13.17;;;2.50;99.90;;;;;;5027996;28;20198;-77
2021/12/06 06:47:56;;;;;;;16.57;12.83;;;2.60;99.90;;;;;;5016546;28;20202;-77
2021/12/06 06:50:24;;;;;;;16.00;13.60;;;2.10;99.90;;;;;;5009986;28;20192;-77
2021/12/06 06:52:52;;;;;;;14.87;12.07;;;2.30;99.90;;;;;;5031799;28;20224;-77
2021/12/06 06:55:30;;;;;;;15.73;12.97;;;2.70;99.90;;;;;;5014291;28;20197;-77
2021/12/06 06:57:58;;;;;;;14.40;12.70;;;3.10;99.90;;;;;;5004309;28;20204;-77
2021/12/06 07:00:29;;;;;;;13.73;12.33;;;3.20;99.90;;;;;;5007597;28;20211;-77
2021/12/06 07:02:57;;;;;;;13.47;12.07;;;3.20;99.90;;;;;;5011297;28;20713;-79
2021/12/06 07:05:26;;;;;;;16.33;13.63;;;3.10;99.90;;;;;;5021928;28;20203;-78
2021/12/06 07:07:53;;;;;;;15.47;13.23;;;3.10;99.90;;;;;;5012498;28;20210;-79
2021/12/06 07:10:23;;;;;;;15.50;13.90;;;3.10;99.90;;;;;;5014250;28;20205;-79
2021/12/06 07:13:00;;;;;;;15.93;13.13;;;3.20;99.90;;;;;;5015559;28;20215;-80
2021/12/06 07:15:33;;;;;;;14.03;12.60;;;3.10;99.90;;;;;;5030010;28;20213;-79
2021/12/06 07:18:02;;;;;;;16.23;13.60;;;2.90;99.90;;;;;;5019073;28;20293;-78
2021/12/06 07:20:32;;;;;;;18.07;16.17;;;2.80;99.90;;;;;;5026406;28;20684;-78
2021/12/06 07:23:27;;;;;;;22.20;18.17;;;2.60;99.90;;;;;;5030607;28;20216;-79
2021/12/06 07:26:00;;;;;;;22.90;18.40;;;2.60;99.90;;;;;;5028239;28;20204;-79
2021/12/06 07:28:28;;;;;;;21.90;16.73;;;2.40;99.90;;;;;;5021719;28;20223;-78
2021/12/06 07:30:58;;;;;;;17.30;14.50;;;2.30;99.90;;;;;;5015949;28;20195;-78
2021/12/06 07:33:26;;;;;;;17.77;14.60;;;2.50;99.90;;;;;;5023484;28;20219;-78
2021/12/06 07:35:54;;;;;;;19.10;15.43;;;2.60;99.90;;;;;;5016841;28;20212;-79
2021/12/06 07:38:22;;;;;;;26.27;16.47;;;2.40;99.90;;;;;;5011014;28;20490;-78
2021/12/06 07:40:50;;;;;;;21.10;16.43;;;2.20;99.90;;;;;;5015064;28;20234;-79
2021/12/06 07:43:18;;;;;;;17.60;15.60;;;2.30;99.90;;;;;;5007920;28;20204;-80
2021/12/06 07:45:47;;;;;;;18.90;15.53;;;2.40;99.90;;;;;;5009872;28;20425;-79
2021/12/06 07:48:16;;;;;;;21.33;16.63;;;2.50;99.90;;;;;;5008336;28;20660;-78
2021/12/06 07:50:43;;;;;;;22.00;15.90;;;2.70;99.90;;;;;;5010924;28;20205;-78
2021/12/06 07:53:11;;;;;;;24.33;18.10;;;2.90;99.90;;;;;;5012113;28;20612;-78
2021/12/06 07:55:39;;;;;;;28.37;19.50;;;3.00;99.90;;;;;;5017329;28;20210;-78
2021/12/06 07:58:07;;;;;;;24.90;19.30;;;3.00;99.90;;;;;;5022364;28;20202;-77
2021/12/06 08:00:42;;;;;;;25.27;18.83;;;3.00;99.90;;;;;;5007585;28;20210;-78
2021/12/06 08:03:11;;;;;;;28.87;19.67;;;3.00;99.90;;;;;;5015531;28;20228;-78
2021/12/06 08:05:42;;;;;;;27.27;18.83;;;2.80;99.90;;;;;;5011848;28;20206;-77
2021/12/06 08:08:12;;;;;;;35.20;21.03;;;2.70;99.90;;;;;;5008427;28;20202;-78
2021/12/06 08:10:43;;;;;;;44.10;23.27;;;2.70;99.90;;;;;;5001911;28;20229;-78
2021/12/06 08:13:12;;;;;;;55.67;23.90;;;2.80;99.90;;;;;;5018016;28;20204;-77
2021/12/06 08:15:40;;;;;;;52.40;23.87;;;2.80;99.90;;;;;;5026568;28;20220;-77
2021/12/06 08:18:08;;;;;;;45.17;21.83;;;2.90;99.90;;;;;;5028736;28;20204;-80
2021/12/06 08:20:36;;;;;;;33.60;21.57;;;2.90;99.90;;;;;;5026170;28;20207;-80
2021/12/06 08:23:06;;;;;;;41.90;21.57;;;2.80;99.90;;;;;;5027488;28;20240;-81
2021/12/06 08:25:34;;;;;;;35.60;20.63;;;2.80;99.90;;;;;;5010686;28;20206;-80
2021/12/06 08:28:02;;;;;;;43.73;21.33;;;2.80;99.90;;;;;;5027328;28;20190;-79
2021/12/06 08:30:30;;;;;;;35.37;21.57;;;2.80;99.90;;;;;;5014387;28;20202;-78
2021/12/06 08:33:02;;;;;;;30.97;19.73;;;2.70;99.90;;;;;;5011965;28;20303;-78
2021/12/06 08:35:31;;;;;;;29.40;18.90;;;2.80;99.90;;;;;;5013806;28;20672;-78
2021/12/06 08:38:00;;;;;;;25.83;18.60;;;2.90;99.90;;;;;;5018559;28;20205;-79
2021/12/06 08:40:30;;;;;;;25.03;17.30;;;2.70;99.90;;;;;;5011343;28;20197;-79
2021/12/06 08:42:58;;;;;;;25.60;17.50;;;2.80;99.90;;;;;;5015330;28;20236;-81
2021/12/06 08:45:27;;;;;;;33.03;17.97;;;2.80;99.90;;;;;;5010677;28;20207;-81
2021/12/06 08:47:54;;;;;;;41.80;18.03;;;2.70;99.90;;;;;;5016017;28;20231;-78
2021/12/06 08:50:23;;;;;;;24.50;17.73;;;2.70;99.90;;;;;;5035315;28;20196;-78
2021/12/06 08:52:51;;;;;;;32.40;17.80;;;2.80;99.90;;;;;;5013155;28;20218;-78
2021/12/06 08:55:19;;;;;;;19.37;17.23;;;2.70;99.90;;;;;;5020948;28;20215;-79
2021/12/06 08:57:50;;;;;;;21.80;15.83;;;2.70;99.90;;;;;;5010166;28;20205;-77
2021/12/06 09:00:20;;;;;;;19.47;16.20;;;2.60;99.90;;;;;;5008536;28;20209;-78
2021/12/06 09:02:48;;;;;;;21.43;16.47;;;2.50;99.90;;;;;;5009628;28;20228;-79
2021/12/06 09:05:15;;;;;;;28.00;16.73;;;2.60;99.90;;;;;;5018629;28;20212;-78
2021/12/06 09:07:42;;;;;;;20.00;16.37;;;2.70;99.90;;;;;;5011015;28;20786;-79
2021/12/06 09:10:12;;;;;;;22.53;16.90;;;2.80;99.90;;;;;;5019184;28;20213;-78
2021/12/06 09:12:40;;;;;;;21.50;16.40;;;2.80;99.90;;;;;;5038131;28;20573;-77
2021/12/06 09:15:13;;;;;;;18.47;16.37;;;2.80;99.90;;;;;;5018284;28;20202;-78
2021/12/06 09:17:41;;;;;;;21.37;15.90;;;2.90;99.90;;;;;;5005243;28;20197;-79
2021/12/06 09:20:12;;;;;;;18.40;15.60;;;2.80;99.90;;;;;;5028196;28;20190;-77
2021/12/06 09:22:39;;;;;;;17.53;15.70;;;2.90;99.90;;;;;;5016364;28;20233;-77
2021/12/06 09:25:09;;;;;;;17.70;14.97;;;3.00;99.90;;;;;;5035558;28;20201;-78
2021/12/06 09:27:38;;;;;;;19.33;15.77;;;3.10;99.90;;;;;;5037441;28;20205;-78
2021/12/06 09:30:08;;;;;;;20.70;16.00;;;3.10;99.90;;;;;;5025828;28;20202;-78
2021/12/06 09:32:37;;;;;;;17.03;15.23;;;2.90;99.90;;;;;;5017866;28;20219;-78
2021/12/06 09:35:05;;;;;;;19.43;15.63;;;2.80;99.90;;;;;;5041739;28;20183;-78
2021/12/06 09:37:36;;;;;;;18.97;16.00;;;2.90;99.90;;;;;;5016074;28;20202;-77
2021/12/06 09:40:06;;;;;;;18.87;14.70;;;3.00;99.90;;;;;;5037795;28;20199;-75
2021/12/06 09:42:42;;;;;;;29.00;15.80;;;2.70;99.90;;;;;;5022785;28;20229;-76
2021/12/06 09:45:12;;;;;;;17.83;14.97;;;2.30;99.90;;;;;;5039308;28;20201;-77
2021/12/06 09:47:48;;;;;;;18.27;15.03;;;2.30;99.90;;;;;;5031383;28;20215;-78
2021/12/06 09:50:21;;;;;;;19.00;16.53;;;2.50;99.90;;;;;;5037735;28;20201;-78
2021/12/06 09:52:49;;;;;;;18.70;16.40;;;2.60;99.90;;;;;;5018601;28;20236;-78
2021/12/06 09:55:17;;;;;;;19.87;15.87;;;2.80;99.90;;;;;;5038677;28;20206;-78
2021/12/06 09:57:45;;;;;;;21.80;16.67;;;2.80;99.90;;;;;;5019225;28;20221;-78
2021/12/06 10:00:17;;;;;;;19.10;15.60;;;2.50;99.90;;;;;;5010808;28;20200;-79
2021/12/06 10:02:46;;;;;;;22.20;15.90;;;2.60;99.90;;;;;;5031856;28;20229;-78
2021/12/06 10:05:14;;;;;;;19.30;17.20;;;2.50;99.90;;;;;;5034037;28;20201;-79
2021/12/06 10:07:41;;;;;;;19.40;16.13;;;2.60;99.90;;;;;;5014188;28;20212;-78
2021/12/06 10:10:20;;;;;;;20.20;16.50;;;2.70;99.90;;;;;;5017425;28;20199;-78
2021/12/06 10:12:52;;;;;;;19.07;16.27;;;2.90;99.90;;;;;;5031740;28;20224;-77
2021/12/06 10:15:25;;;;;;;19.67;16.83;;;2.90;99.90;;;;;;5028026;28;20203;-77
2021/12/06 10:17:55;;;;;;;18.83;16.67;;;2.90;99.90;;;;;;5038113;28;20210;-78
2021/12/06 10:20:24;;;;;;;19.20;16.70;;;3.10;99.90;;;;;;5040581;28;20200;-78
2021/12/06 10:22:52;;;;;;;20.43;17.63;;;3.20;99.90;;;;;;5021702;28;20234;-78
2021/12/06 10:25:19;;;;;;;19.30;17.17;;;3.40;99.90;;;;;;5035291;28;20218;-78
2021/12/06 10:27:54;;;;;;;20.97;17.77;;;3.40;99.90;;;;;;5018136;28;20206;-77
2021/12/06 10:30:34;;;;;;;17.97;16.07;;;3.20;99.90;;;;;;5031062;28;20195;-78
2021/12/06 10:33:08;;;;;;;20.10;16.70;;;3.30;99.90;;;;;;5040552;28;20221;-77
2021/12/06 10:35:40;;;;;;;23.93;17.77;;;3.30;99.90;;;;;;5024367;28;20204;-78
2021/12/06 10:38:14;;;;;;;26.70;16.73;;;3.30;99.90;;;;;;5013629;28;20663;-78
2021/12/06 10:40:42;;;;;;;21.90;17.83;;;3.10;99.90;;;;;;5015615;28;20206;-77
2021/12/06 10:43:12;;;;;;;21.17;16.63;;;3.00;99.90;;;;;;5018096;28;20229;-77
2021/12/06 10:45:44;;;;;;;22.10;18.07;;;3.10;99.90;;;;;;5014531;28;20712;-78
2021/12/06 10:48:15;;;;;;;23.37;17.47;;;3.20;99.90;;;;;;5022936;28;20194;-78
2021/12/06 10:50:46;;;;;;;27.33;19.47;;;3.20;99.90;;;;;;5021035;28;20549;-78
2021/12/06 10:53:15;;;;;;;25.03;18.87;;;3.10;99.90;;;;;;5016245;28;20206;-78
2021/12/06 10:55:44;;;;;;;27.37;19.10;;;3.20;99.90;;;;;;5022945;28;20211;-79
2021/12/06 10:58:14;;;;;;;23.93;19.37;;;3.10;99.90;;;;;;5019083;28;20210;-78
2021/12/06 11:00:46;;;;;;;27.77;19.60;;;3.20;99.90;;;;;;5015353;28;20198;-78
2021/12/06 11:03:29;;;;;;;43.67;20.50;;;3.20;99.90;;;;;;5016786;28;20700;-78
2021/12/06 11:06:01;;;;;;;25.97;18.30;;;3.00;99.90;;;;;;5036825;28;20218;-74
2021/12/06 11:08:51;;;;;;;22.40;17.10;;;3.30;99.90;;;;;;5011519;28;20688;-75
2021/12/06 11:11:24;;;;;;;24.50;16.53;;;3.70;99.90;;;;;;5009275;28;20218;-77
2021/12/06 11:13:53;;;;;;;23.40;17.47;;;3.70;99.90;;;;;;5018827;28;20202;-78
2021/12/06 11:16:22;;;;;;;18.03;13.70;;;4.00;99.90;;;;;;5024622;28;20196;-75
2021/12/06 11:18:54;;;;;;;21.13;16.80;;;5.40;99.90;;;;;;5014204;28;20208;-78
2021/12/06 11:21:31;;;;;;;22.20;17.40;;;6.10;99.90;;;;;;5016150;28;20257;-78
2021/12/06 11:24:12;;;;;;;21.90;17.10;;;5.40;99.90;;;;;;5007521;28;20206;-77
2021/12/06 11:26:43;;;;;;;23.20;17.47;;;5.10;99.90;;;;;;5014754;28;20196;-78
2021/12/06 11:29:14;;;;;;;25.97;17.97;;;4.30;99.90;;;;;;5021349;28;20227;-77
2021/12/06 11:31:48;;;;;;;23.47;18.13;;;4.10;99.90;;;;;;5019307;28;20230;-77
2021/12/06 11:34:17;;;;;;;24.67;17.87;;;4.20;99.90;;;;;;5023338;28;20197;-77
2021/12/06 11:36:45;;;;;;;21.97;17.93;;;4.00;99.90;;;;;;5013569;28;20204;-80
2021/12/06 11:39:16;;;;;;;23.00;17.97;;;4.00;99.90;;;;;;5029259;28;20208;-80
2021/12/06 11:41:45;;;;;;;21.40;18.27;;;3.90;99.90;;;;;;5024879;28;20686;-77
2021/12/06 11:44:16;;;;;;;21.07;17.90;;;3.90;99.90;;;;;;5014425;28;20222;-77
2021/12/06 11:46:45;;;;;;;24.00;19.20;;;4.00;99.90;;;;;;5031122;28;20553;-77
2021/12/06 11:49:19;;;;;;;20.37;17.83;;;4.30;99.90;;;;;;5011209;28;20196;-74
2021/12/06 11:51:47;;;;;;;26.63;18.63;;;4.20;99.90;;;;;;5010273;28;20228;-77
2021/12/06 11:54:25;;;;;;;24.03;19.30;;;4.00;99.90;;;;;;5031724;28;20196;-76
2021/12/06 11:56:52;;;;;;;26.83;19.70;;;4.00;99.90;;;;;;5012744;28;20214;-78
2021/12/06 11:59:21;;;;;;;22.17;17.77;;;4.00;99.90;;;;;;5008392;28;20201;-77
2021/12/06 12:01:52;;;;;;;22.37;18.00;;;3.90;99.90;;;;;;5031535;28;20227;-78
2021/12/06 12:04:23;;;;;;;19.93;17.37;;;4.20;99.90;;;;;;5020750;28;20227;-78
2021/12/06 12:06:56;;;;;;;21.50;18.27;;;4.50;99.90;;;;;;5019998;28;20216;-77
2021/12/06 12:09:25;;;;;;;22.20;17.90;;;4.40;99.90;;;;;;5019239;28;20200;-77
2021/12/06 12:12:03;;;;;;;23.47;19.43;;;4.50;99.90;;;;;;5031428;28;20213;-78
2021/12/06 12:14:35;;;;;;;21.77;19.13;;;4.60;99.90;;;;;;5030062;28;20200;-79
2021/12/06 12:17:06;;;;;;;22.13;18.57;;;4.90;99.90;;;;;;5028650;28;20209;-78
2021/12/06 12:19:35;;;;;;;21.60;18.30;;;5.00;99.90;;;;;;5016254;28;20679;-77
2021/12/06 12:22:03;;;;;;;22.37;18.77;;;5.10;99.90;;;;;;5010711;28;20305;-77
2021/12/06 12:24:31;;;;;;;22.03;19.20;;;5.10;99.90;;;;;;5017632;28;20226;-78
2021/12/06 12:27:08;;;;;;;21.60;18.57;;;5.40;99.90;;;;;;5017355;28;20208;-77
2021/12/06 12:29:36;;;;;;;21.93;19.63;;;5.50;99.90;;;;;;5016322;28;20210;-78
2021/12/06 12:32:06;;;;;;;22.43;19.03;;;5.70;99.90;;;;;;5050126;23;20233;-77
2021/12/06 12:34:39;;;;;;;21.00;18.33;;;5.80;99.90;;;;;;5045732;28;20205;-78
2021/12/06 12:37:08;;;;;;;22.57;19.03;;;5.80;99.90;;;;;;5045041;28;20208;-77
2021/12/06 12:39:36;;;;;;;20.77;17.90;;;5.90;99.90;;;;;;5059391;28;20206;-78
2021/12/06 12:42:06;;;;;;;20.33;18.17;;;6.00;99.90;;;;;;5048072;28;20220;-78
2021/12/06 12:44:42;;;;;;;21.60;18.13;;;6.00;99.90;;;;;;5053774;28;20217;-78
2021/12/06 12:47:18;;;;;;;23.00;18.10;;;5.90;99.90;;;;;;5045660;28;20608;-77
2021/12/06 12:49:50;;;;;;;20.90;17.73;;;5.80;99.90;;;;;;5048867;28;20682;-78
2021/12/06 12:52:34;;;;;;;22.77;18.93;;;5.70;99.90;;;;;;5049592;28;20221;-77
2021/12/06 12:55:02;;;;;;;23.27;18.57;;;5.80;99.90;;;;;;5047723;28;20202;-78
2021/12/06 12:57:36;;;;;;;21.50;19.20;;;5.80;99.90;;;;;;5050954;28;20217;-78
2021/12/06 13:00:24;;;;;;;21.20;18.50;;;5.60;99.90;;;;;;5048782;28;20193;-77
2021/12/06 13:02:51;;;;;;;23.10;20.23;;;5.60;99.90;;;;;;5053061;28;20221;-78